Time;durP1;ratioP1;P1;durP2;ratioP2;P2;SDS_P1;SDS_P2;PMS_P1;PMS_P2;Temp;Humidity;BMP_temperature;BMP_pressure;BME280_temperature;BME280_humidity;BME280_pressure;Samples;Min_cycle;Max_cycle;Signal;HPM_P1;HPM_P2
2022/03/15 00:02:05;;;;;;;25.98;9.40;;;;;;;-1.06;74.63;96377.06;4962620;28;20269;-79
2022/03/15 00:04:32;;;;;;;29.58;10.40;;;;;;;-1.04;75.28;96369.69;4962776;28;20239;-80
2022/03/15 00:06:59;;;;;;;26.58;10.32;;;;;;;-1.02;74.81;96372.16;4968488;28;20299;-79
2022/03/15 00:09:27;;;;;;;30.38;11.57;;;;;;;-0.97;74.80;96378.47;4968532;28;20202;-78
2022/03/15 00:11:54;;;;;;;20.73;9.75;;;;;;;-1.00;73.76;96370.91;4962211;28;20229;-79
2022/03/15 00:14:23;;;;;;;27.55;10.93;;;;;;;-1.12;74.75;96384.06;4962011;28;20791;-79
2022/03/15 00:16:51;;;;;;;33.92;14.23;;;;;;;-1.14;74.30;96379.97;4962516;28;20227;-79
2022/03/15 00:19:18;;;;;;;54.30;19.50;;;;;;;-1.21;75.14;96379.16;4974269;28;20719;-79
2022/03/15 00:21:45;;;;;;;32.95;13.23;;;;;;;-1.33;75.41;96380.84;4962802;28;20226;-79
2022/03/15 00:24:16;;;;;;;33.10;14.05;;;;;;;-1.35;75.67;96366.97;4961674;28;20234;-79
2022/03/15 00:26:44;;;;;;;34.47;16.08;;;;;;;-1.53;75.93;96376.44;4974817;28;20716;-79
2022/03/15 00:29:11;;;;;;;32.00;13.23;;;;;;;-1.71;76.07;96373.59;4962702;28;20254;-79
2022/03/15 00:31:44;;;;;;;22.85;11.00;;;;;;;-1.72;76.18;96371.16;4965246;28;20266;-78
2022/03/15 00:34:11;;;;;;;21.42;11.10;;;;;;;-1.73;76.46;96365.03;4966004;28;20199;-79
2022/03/15 00:36:38;;;;;;;26.85;11.00;;;;;;;-1.69;76.12;96366.25;4963656;28;20736;-79
2022/03/15 00:39:06;;;;;;;38.63;16.10;;;;;;;-1.51;75.15;96363.75;4961031;28;20325;-79
2022/03/15 00:41:34;;;;;;;27.75;13.52;;;;;;;-1.70;75.11;96369.94;4974359;28;20203;-79
2022/03/15 00:44:01;;;;;;;17.95;9.18;;;;;;;-1.65;76.07;96367.47;4957413;28;20690;-79
2022/03/15 00:46:29;;;;;;;21.08;9.15;;;;;;;-1.64;76.72;96363.78;4966445;28;20262;-79
2022/03/15 00:48:57;;;;;;;21.30;10.70;;;;;;;-1.59;77.47;96363.97;4961620;28;20209;-78
2022/03/15 00:51:24;;;;;;;20.55;9.38;;;;;;;-1.48;76.13;96357.19;4961570;28;20211;-78
2022/03/15 00:53:51;;;;;;;20.60;10.13;;;;;;;-1.40;75.21;96362.28;4965863;28;20565;-79
2022/03/15 00:56:19;;;;;;;18.80;9.93;;;;;;;-1.49;74.88;96356.38;4964264;28;20214;-79
2022/03/15 00:58:46;;;;;;;15.40;5.10;;;;;;;-1.42;73.34;96342.25;4959908;28;20202;-79
2022/03/15 01:01:13;;;;;;;18.05;7.35;;;;;;;-1.74;73.67;96342.16;4961669;28;20621;-78
2022/03/15 01:03:40;;;;;;;21.25;8.43;;;;;;;-1.95;74.13;96339.75;4957907;28;20213;-78
2022/03/15 01:06:08;;;;;;;27.20;10.02;;;;;;;-2.01;76.45;96337.91;4960920;28;20231;-79
2022/03/15 01:08:36;;;;;;;23.02;10.20;;;;;;;-1.89;76.62;96336.25;4966680;28;20256;-79
2022/03/15 01:11:06;;;;;;;19.77;8.23;;;;;;;-1.78;77.31;96332.97;4966011;28;20261;-79
2022/03/15 01:13:38;;;;;;;20.60;8.85;;;;;;;-1.73;76.92;96338.47;4960471;28;20199;-79
2022/03/15 01:16:06;;;;;;;19.35;9.07;;;;;;;-1.66;76.38;96333.16;4959784;28;20227;-78
2022/03/15 01:18:33;;;;;;;16.10;8.90;;;;;;;-1.73;76.92;96335.81;4960124;28;20207;-79
2022/03/15 01:21:00;;;;;;;22.63;8.05;;;;;;;-1.55;77.54;96341.28;4958540;28;20219;-78
2022/03/15 01:23:31;;;;;;;22.50;9.38;;;;;;;-1.53;76.18;96344.56;4971609;28;20213;-79
2022/03/15 01:26:00;;;;;;;21.77;10.00;;;;;;;-1.54;76.32;96337.59;4957706;28;20310;-79
2022/03/15 01:28:28;;;;;;;15.88;8.68;;;;;;;-1.55;76.32;96341.28;4954223;28;20243;-78
2022/03/15 01:30:55;;;;;;;27.42;13.30;;;;;;;-1.57;76.92;96340.69;4966661;28;20350;-78
2022/03/15 01:33:24;;;;;;;18.50;8.85;;;;;;;-1.58;76.63;96336.38;4962487;28;20215;-78
2022/03/15 01:35:51;;;;;;;24.00;10.40;;;;;;;-1.62;75.64;96345.78;4962078;28;20581;-78
2022/03/15 01:38:21;;;;;;;14.85;6.95;;;;;;;-1.67;75.99;96348.28;4967641;28;20230;-78
2022/03/15 01:40:50;;;;;;;16.52;7.18;;;;;;;-1.64;75.39;96347.84;4974640;28;20657;-78
2022/03/15 01:43:17;;;;;;;14.38;7.20;;;;;;;-1.72;75.64;96337.44;4965284;28;20234;-78
2022/03/15 01:45:44;;;;;;;14.75;6.97;;;;;;;-1.71;75.21;96339.06;4961589;28;20230;-78
2022/03/15 01:48:11;;;;;;;19.38;8.48;;;;;;;-1.62;75.51;96345.78;4966523;28;20567;-78
2022/03/15 01:50:39;;;;;;;23.10;9.70;;;;;;;-1.57;75.49;96351.31;4975146;28;20619;-77
2022/03/15 01:53:06;;;;;;;20.27;8.95;;;;;;;-1.64;75.94;96355.81;4966136;28;20233;-79
2022/03/15 01:55:34;;;;;;;17.23;7.30;;;;;;;-1.64;75.33;96361.13;4971294;28;20218;-77
2022/03/15 01:58:02;;;;;;;15.13;7.85;;;;;;;-1.71;76.12;96360.31;4970918;28;20565;-78
2022/03/15 02:00:31;;;;;;;17.23;7.55;;;;;;;-1.74;76.07;96362.56;4977757;28;20228;-78
2022/03/15 02:02:58;;;;;;;13.13;6.97;;;;;;;-1.72;75.29;96371.16;4964545;28;20238;-78
2022/03/15 02:05:26;;;;;;;20.23;8.27;;;;;;;-1.76;74.99;96370.75;4964832;28;20286;-78
2022/03/15 02:07:54;;;;;;;13.90;7.55;;;;;;;-1.86;76.21;96359.75;4978126;28;20203;-78
2022/03/15 02:10:21;;;;;;;15.95;7.95;;;;;;;-2.03;76.19;96347.91;4964963;28;20202;-78
2022/03/15 02:12:48;;;;;;;15.60;7.50;;;;;;;-2.08;75.78;96350.38;4964329;28;20230;-78
2022/03/15 02:15:16;;;;;;;17.05;7.00;;;;;;;-2.06;75.71;96353.66;4976695;28;20207;-78
2022/03/15 02:17:43;;;;;;;14.98;6.57;;;;;;;-2.20;76.44;96355.50;4962976;28;20234;-78
2022/03/15 02:20:13;;;;;;;13.40;6.18;;;;;;;-2.12;76.02;96354.47;4969190;28;20278;-78
2022/03/15 02:22:40;;;;;;;11.07;6.20;;;;;;;-2.08;74.87;96347.75;4968988;28;20210;-78
2022/03/15 02:25:08;;;;;;;15.60;6.15;;;;;;;-2.19;75.41;96343.88;4966467;28;20261;-77
2022/03/15 02:27:35;;;;;;;19.67;8.27;;;;;;;-2.34;76.36;96340.59;4969631;28;20227;-78
2022/03/15 02:30:02;;;;;;;14.65;6.07;;;;;;;-2.35;76.76;96329.19;4965508;28;20207;-78
2022/03/15 02:32:32;;;;;;;12.05;5.40;;;;;;;-2.37;76.84;96328.56;4962367;28;20251;-78
2022/03/15 02:34:59;;;;;;;13.90;6.85;;;;;;;-2.46;78.28;96327.13;4966790;28;20230;-78
2022/03/15 02:37:36;;;;;;;23.83;6.95;;;;;;;-2.52;76.98;96322.63;4964733;28;20207;-78
2022/03/15 02:40:03;;;;;;;60.00;22.45;;;;;;;-2.49;78.00;96316.94;4967168;28;20198;-78
2022/03/15 02:42:31;;;;;;;37.80;12.85;;;;;;;-2.43;79.11;96315.28;4976115;28;20655;-78
2022/03/15 02:44:58;;;;;;;36.88;12.50;;;;;;;-2.34;78.21;96320.19;4964137;28;20218;-78
2022/03/15 02:47:24;;;;;;;19.92;8.55;;;;;;;-2.19;80.55;96323.44;4966885;28;20231;-78
2022/03/15 02:49:52;;;;;;;25.80;8.23;;;;;;;-1.99;80.48;96333.22;4967423;28;20217;-78
2022/03/15 02:52:19;;;;;;;13.88;6.60;;;;;;;-1.93;78.97;96341.19;4964382;28;20261;-78
2022/03/15 02:54:48;;;;;;;16.00;7.78;;;;;;;-1.88;76.94;96333.38;4965732;28;20203;-78
2022/03/15 02:57:21;;;;;;;17.23;7.68;;;;;;;-1.99;77.14;96333.22;4971701;28;20207;-77
2022/03/15 02:59:48;;;;;;;11.18;6.47;;;;;;;-1.93;78.21;96337.72;4972270;28;20947;-78
2022/03/15 03:02:16;;;;;;;14.00;7.57;;;;;;;-2.02;78.27;96328.31;4965661;28;20210;-79
2022/03/15 03:04:43;;;;;;;17.55;8.00;;;;;;;-2.18;76.92;96330.38;4962640;28;20222;-79
2022/03/15 03:07:12;;;;;;;15.98;7.40;;;;;;;-2.43;78.02;96326.72;4962444;28;20290;-79
2022/03/15 03:09:38;;;;;;;16.48;7.45;;;;;;;-2.21;77.60;96320.19;4964583;28;20210;-79
2022/03/15 03:12:08;;;;;;;13.48;7.57;;;;;;;-2.23;76.87;96322.22;4962922;28;20203;-79
2022/03/15 03:14:39;;;;;;;13.98;6.95;;;;;;;-2.23;78.01;96319.56;4972519;28;20629;-78
2022/03/15 03:17:06;;;;;;;11.52;6.97;;;;;;;-2.04;77.56;96325.03;4967061;28;20222;-79
2022/03/15 03:19:39;;;;;;;12.95;6.70;;;;;;;-2.07;77.16;96320.16;4970622;28;20203;-79
2022/03/15 03:22:06;;;;;;;19.40;8.18;;;;;;;-2.01;78.03;96324.63;4963013;28;20207;-78
2022/03/15 03:24:34;;;;;;;16.13;8.00;;;;;;;-2.07;77.51;96304.25;4959453;28;20568;-78
2022/03/15 03:27:01;;;;;;;12.85;6.43;;;;;;;-2.12;77.53;96309.34;4968133;28;20250;-79
2022/03/15 03:29:32;;;;;;;13.68;6.72;;;;;;;-2.32;77.08;96304.88;4972131;28;20234;-78
2022/03/15 03:32:00;;;;;;;15.38;7.72;;;;;;;-2.40;77.25;96294.47;4959825;28;20218;-79
2022/03/15 03:34:27;;;;;;;14.55;7.22;;;;;;;-2.31;77.08;96298.53;4974376;28;20241;-78
2022/03/15 03:36:55;;;;;;;14.85;6.55;;;;;;;-2.20;77.01;96295.28;4976478;28;20282;-79
2022/03/15 03:39:23;;;;;;;21.95;7.32;;;;;;;-2.09;76.84;96293.81;4975701;28;20634;-79
2022/03/15 03:41:50;;;;;;;17.42;7.07;;;;;;;-2.18;76.17;96297.69;4975281;28;20210;-79
2022/03/15 03:44:17;;;;;;;15.00;7.47;;;;;;;-2.40;76.88;96302.44;4968225;28;20604;-78
2022/03/15 03:46:45;;;;;;;14.27;5.90;;;;;;;-2.90;78.08;96309.97;4962142;28;20235;-78
2022/03/15 03:49:12;;;;;;;16.98;7.18;;;;;;;-3.03;79.44;96309.94;4973188;28;20260;-78
2022/03/15 03:51:40;;;;;;;16.40;6.82;;;;;;;-3.06;80.89;96314.84;4973531;28;20680;-79
2022/03/15 03:54:08;;;;;;;14.73;7.65;;;;;;;-2.94;82.08;96319.34;4962884;28;20295;-78
2022/03/15 03:56:35;;;;;;;20.60;10.38;;;;;;;-2.60;80.66;96331.63;4965818;28;20202;-78
2022/03/15 03:59:02;;;;;;;24.08;8.60;;;;;;;-2.87;78.75;96330.75;4974162;28;20221;-78
2022/03/15 04:01:29;;;;;;;27.35;9.10;;;;;;;-3.21;78.50;96344.16;4974186;28;20611;-78
2022/03/15 04:03:59;;;;;;;21.05;7.65;;;;;;;-3.07;79.64;96351.13;4974977;28;20230;-78
2022/03/15 04:06:26;;;;;;;17.05;7.95;;;;;;;-2.95;77.63;96361.94;4974858;28;20277;-78
2022/03/15 04:08:56;;;;;;;18.95;8.77;;;;;;;-3.00;77.38;96365.19;4966309;28;20211;-77
2022/03/15 04:11:23;;;;;;;21.63;8.82;;;;;;;-2.98;79.17;96363.16;4961447;28;20226;-80
2022/03/15 04:13:51;;;;;;;21.83;9.00;;;;;;;-2.94;79.42;96361.75;4974357;28;20202;-79
2022/03/15 04:16:25;;;;;;;11.75;7.68;;;;;;;-2.88;79.52;96350.38;4962528;28;20269;-79
2022/03/15 04:18:52;;;;;;;21.40;8.32;;;;;;;-2.75;80.27;96359.34;4975751;28;20214;-79
2022/03/15 04:21:24;;;;;;;18.98;9.40;;;;;;;-2.64;79.03;96362.22;4971154;28;20805;-79
2022/03/15 04:23:51;;;;;;;17.88;9.25;;;;;;;-2.60;78.69;96363.47;4956694;28;20250;-79
2022/03/15 04:26:22;;;;;;;20.55;9.65;;;;;;;-2.50;77.91;96365.72;4973617;28;20304;-79
2022/03/15 04:28:49;;;;;;;24.88;9.95;;;;;;;-2.63;78.20;96368.34;4973263;28;20230;-79
2022/03/15 04:31:16;;;;;;;27.92;11.65;;;;;;;-2.55;78.00;96376.09;4966738;28;20602;-79
2022/03/15 04:33:43;;;;;;;27.05;10.40;;;;;;;-2.43;77.52;96378.97;4965746;28;20228;-79
2022/03/15 04:36:11;;;;;;;24.38;10.15;;;;;;;-2.57;78.04;96364.88;4954305;28;20234;-79
2022/03/15 04:38:40;;;;;;;24.92;10.82;;;;;;;-2.47;77.21;96367.97;4968596;28;20281;-79
2022/03/15 04:41:07;;;;;;;20.70;9.60;;;;;;;-2.52;77.14;96373.03;4962391;28;20206;-79
2022/03/15 04:43:35;;;;;;;26.92;10.23;;;;;;;-2.57;77.82;96378.94;4974559;28;20313;-79
2022/03/15 04:46:04;;;;;;;24.73;10.43;;;;;;;-2.49;77.36;96370.00;4968472;28;20218;-79
2022/03/15 04:48:32;;;;;;;19.98;9.77;;;;;;;-2.42;77.41;96369.97;4968178;28;20221;-79
2022/03/15 04:50:59;;;;;;;22.20;10.23;;;;;;;-2.37;77.19;96378.16;4962039;28;20731;-78
2022/03/15 04:53:26;;;;;;;20.83;10.10;;;;;;;-2.29;77.20;96375.28;4961760;28;20202;-78
2022/03/15 04:55:54;;;;;;;19.52;10.30;;;;;;;-2.10;76.20;96378.97;4965842;28;20294;-78
2022/03/15 04:58:25;;;;;;;33.88;10.50;;;;;;;-2.10;76.34;96371.84;4967774;28;20657;-79
2022/03/15 05:00:55;;;;;;;19.58;8.52;;;;;;;-1.33;76.17;96360.41;4964340;28;20198;-79
2022/03/15 05:03:22;;;;;;;23.50;11.05;;;;;;;-0.40;72.65;96360.72;4960833;28;20253;-79
2022/03/15 05:05:49;;;;;;;25.02;10.93;;;;;;;0.19;69.38;96356.75;4963365;28;20206;-80
2022/03/15 05:08:16;;;;;;;24.77;10.65;;;;;;;0.65;67.64;96353.59;4956524;28;20213;-80
2022/03/15 05:13:34;;;;;;;21.52;10.52;;;;;;;2.22;63.72;96348.84;4967976;28;20198;-78
2022/03/15 05:16:01;;;;;;;27.80;11.63;;;;;;;2.85;62.07;96352.41;4967169;28;20230;-80
2022/03/15 05:18:28;;;;;;;28.73;13.57;;;;;;;3.38;59.18;96353.16;4972593;28;20658;-79
2022/03/15 05:20:55;;;;;;;24.17;12.25;;;;;;;3.46;57.86;96356.25;4959449;28;20195;-78
2022/03/15 05:23:22;;;;;;;24.63;11.48;;;;;;;3.79;58.42;96349.34;4970369;28;20237;-78
2022/03/15 05:25:49;;;;;;;37.88;14.32;;;;;;;4.21;55.99;96350.56;4956647;28;20209;-79
2022/03/15 05:28:16;;;;;;;28.25;12.57;;;;;;;5.64;54.42;96340.53;4956488;28;20241;-78
2022/03/15 05:30:45;;;;;;;30.75;13.52;;;;;;;6.38;52.73;96340.66;4958778;28;20289;-79
2022/03/15 05:33:15;;;;;;;27.60;14.93;;;;;;;6.81;52.01;96333.41;4972527;28;20218;-78
2022/03/15 05:35:42;;;;;;;47.53;21.80;;;;;;;7.09;50.42;96330.28;4970387;28;20202;-78
2022/03/15 05:38:12;;;;;;;30.75;15.63;;;;;;;6.37;49.21;96330.97;4960771;28;20210;-77
2022/03/15 05:40:40;;;;;;;35.60;16.42;;;;;;;6.30;50.42;96333.06;4960567;28;20215;-78
2022/03/15 05:43:07;;;;;;;28.85;15.95;;;;;;;5.86;52.26;96337.81;4973200;28;20666;-78
2022/03/15 05:45:34;;;;;;;40.65;15.40;;;;;;;5.00;54.55;96332.31;4971817;28;20210;-79
2022/03/15 05:48:04;;;;;;;27.83;14.80;;;;;;;5.70;53.31;96334.16;4963107;28;20620;-79
2022/03/15 05:50:32;;;;;;;34.85;16.27;;;;;;;6.38;51.55;96332.59;4966686;28;20316;-79
2022/03/15 05:53:04;;;;;;;35.03;17.27;;;;;;;7.36;49.41;96334.69;4963133;28;20199;-78
2022/03/15 05:55:33;;;;;;;33.53;16.63;;;;;;;7.72;48.43;96322.91;4972831;28;20429;-78
2022/03/15 05:58:00;;;;;;;29.08;16.85;;;;;;;7.87;46.85;96324.00;4961717;28;20298;-78
2022/03/15 06:00:27;;;;;;;37.80;17.00;;;;;;;8.11;46.10;96325.09;4966202;28;20685;-78
2022/03/15 06:02:54;;;;;;;33.85;16.73;;;;;;;7.84;47.15;96333.44;4964936;28;20222;-77
2022/03/15 06:05:23;;;;;;;32.05;18.88;;;;;;;7.81;47.26;96331.28;4960018;28;20210;-77
2022/03/15 06:07:52;;;;;;;35.88;17.27;;;;;;;8.75;45.64;96332.59;4961864;28;20231;-78
2022/03/15 06:10:21;;;;;;;36.97;17.60;;;;;;;9.53;43.96;96330.16;4965665;28;20210;-78
2022/03/15 06:12:49;;;;;;;33.17;16.30;;;;;;;9.05;43.84;96337.94;4964145;28;20206;-78
2022/03/15 06:15:16;;;;;;;35.03;19.02;;;;;;;9.67;41.73;96336.59;4957965;28;20230;-79
2022/03/15 06:17:48;;;;;;;34.60;17.85;;;;;;;9.47;42.08;96333.97;4958419;28;20263;-78
2022/03/15 06:20:16;;;;;;;36.53;17.25;;;;;;;10.52;40.73;96328.91;4957939;28;20233;-78
2022/03/15 06:22:45;;;;;;;32.67;17.67;;;;;;;10.79;39.94;96324.88;4961563;28;20206;-78
2022/03/15 06:25:12;;;;;;;31.98;18.50;;;;;;;10.18;40.63;96325.41;4955359;28;20666;-78
2022/03/15 06:27:39;;;;;;;33.85;22.15;;;;;;;8.67;42.75;96343.97;4968101;28;20241;-79
2022/03/15 06:30:08;;;;;;;43.92;23.83;;;;;;;8.05;44.46;96337.78;4962346;28;20202;-79
2022/03/15 06:32:35;;;;;;;38.45;22.75;;;;;;;8.68;42.84;96341.00;4961448;28;20203;-78
2022/03/15 06:35:06;;;;;;;36.80;21.48;;;;;;;9.07;41.16;96327.66;4966681;28;20737;-78
2022/03/15 06:37:35;;;;;;;38.42;20.88;;;;;;;10.08;40.22;96320.88;4968137;28;20720;-79
2022/03/15 06:40:03;;;;;;;33.42;19.75;;;;;;;10.67;38.57;96320.63;4955317;28;20214;-79
2022/03/15 06:42:31;;;;;;;31.83;19.50;;;;;;;11.88;35.81;96328.44;4972736;28;20221;-79
2022/03/15 06:44:57;;;;;;;36.63;20.67;;;;;;;9.73;38.18;96340.88;4963248;28;20203;-78
2022/03/15 06:47:25;;;;;;;34.50;22.13;;;;;;;9.15;40.57;96340.63;4967790;28;20301;-79
2022/03/15 06:49:53;;;;;;;37.97;20.95;;;;;;;10.40;37.89;96328.47;4966499;28;20616;-79
2022/03/15 06:52:20;;;;;;;43.80;22.27;;;;;;;9.75;39.09;96338.69;4961536;28;20275;-79
2022/03/15 06:54:47;;;;;;;38.63;22.88;;;;;;;10.73;37.57;96326.03;4962413;28;20570;-79
2022/03/15 06:57:15;;;;;;;42.75;21.52;;;;;;;10.48;37.96;96333.31;4967890;28;20224;-80
2022/03/15 06:59:42;;;;;;;30.30;18.35;;;;;;;10.47;37.02;96339.81;4967582;28;20745;-79
2022/03/15 07:02:11;;;;;;;31.60;19.10;;;;;;;9.95;38.31;96333.16;4960281;28;20279;-78
2022/03/15 07:04:38;;;;;;;31.65;19.42;;;;;;;9.16;39.33;96336.00;4960695;28;20202;-79
2022/03/15 07:07:04;;;;;;;33.38;19.60;;;;;;;8.98;44.82;96350.13;4961703;28;20234;-79
2022/03/15 07:09:31;;;;;;;29.90;20.15;;;;;;;9.83;45.12;96338.13;4963541;28;20273;-78
2022/03/15 07:11:58;;;;;;;34.78;20.88;;;;;;;9.48;52.77;96349.13;4958927;28;20199;-79
2022/03/15 07:14:26;;;;;;;40.63;22.02;;;;;;;9.57;40.51;96344.72;4962048;28;20274;-79
2022/03/15 07:16:53;;;;;;;34.90;21.27;;;;;;;8.89;43.54;96347.97;4963299;28;20214;-79
2022/03/15 07:19:20;;;;;;;37.95;22.00;;;;;;;8.76;42.42;96345.03;4962236;28;20706;-80
2022/03/15 07:21:47;;;;;;;36.78;21.95;;;;;;;7.66;44.36;96361.72;4961788;28;20469;-79
2022/03/15 07:24:14;;;;;;;39.28;22.35;;;;;;;9.02;49.77;96349.28;4969889;28;20267;-79
2022/03/15 07:26:41;;;;;;;37.55;22.00;;;;;;;8.33;47.99;96349.97;4965577;28;20278;-79
2022/03/15 07:29:08;;;;;;;40.75;22.63;;;;;;;8.58;48.44;96341.03;4959131;28;20199;-79
2022/03/15 07:31:36;;;;;;;36.17;21.15;;;;;;;9.06;43.14;96341.44;4961717;28;20199;-79
2022/03/15 07:34:03;;;;;;;37.95;22.60;;;;;;;8.98;42.73;96350.13;4962257;28;20226;-79
2022/03/15 07:36:30;;;;;;;45.47;23.80;;;;;;;7.69;43.95;96355.00;4961482;28;20230;-81
2022/03/15 07:38:57;;;;;;;40.08;23.23;;;;;;;7.33;44.83;96362.19;4963414;28;20514;-80
2022/03/15 07:41:24;;;;;;;37.92;22.15;;;;;;;7.66;44.81;96360.91;4964426;28;20206;-80
2022/03/15 07:43:51;;;;;;;48.95;23.58;;;;;;;7.44;45.22;96363.84;4962079;28;20206;-79
2022/03/15 07:46:18;;;;;;;40.50;22.85;;;;;;;7.26;46.37;96361.59;4964295;28;20197;-79
2022/03/15 07:48:46;;;;;;;48.50;25.45;;;;;;;7.63;45.32;96361.47;4962560;28;20230;-79
2022/03/15 07:51:13;;;;;;;38.20;21.60;;;;;;;7.07;45.42;96359.38;4965972;28;20493;-79
2022/03/15 07:53:40;;;;;;;39.20;22.13;;;;;;;7.46;45.54;96356.28;4964024;28;20200;-80
2022/03/15 07:56:07;;;;;;;33.25;20.27;;;;;;;6.70;45.61;96350.53;4962861;28;20198;-79
2022/03/15 07:58:33;;;;;;;33.00;19.92;;;;;;;6.95;45.87;96355.28;4960281;28;20196;-79
2022/03/15 08:01:01;;;;;;;39.08;22.35;;;;;;;7.36;44.73;96350.88;4957623;28;20235;-80
2022/03/15 08:03:27;;;;;;;39.15;22.80;;;;;;;6.81;45.91;96354.94;4965831;28;20237;-78
2022/03/15 08:05:56;;;;;;;51.10;27.38;;;;;;;6.22;47.40;96352.38;4963886;28;20198;-79
2022/03/15 08:08:22;;;;;;;49.78;27.48;;;;;;;5.54;48.91;96351.19;4960145;28;20234;-83
2022/03/15 08:10:49;;;;;;;43.45;24.95;;;;;;;5.16;50.42;96359.38;4962457;28;20203;-79
2022/03/15 08:13:16;;;;;;;46.10;25.67;;;;;;;5.32;50.08;96348.56;4966592;28;20363;-78
2022/03/15 08:15:43;;;;;;;44.47;25.25;;;;;;;5.65;49.97;96336.78;4968646;28;20294;-82
2022/03/15 08:18:10;;;;;;;46.00;25.05;;;;;;;5.56;49.89;96341.00;4969992;28;20234;-79
2022/03/15 08:20:39;;;;;;;42.10;23.50;;;;;;;5.65;49.38;96341.34;4960601;28;20203;-79
2022/03/15 08:23:07;;;;;;;45.70;23.13;;;;;;;5.77;49.65;96343.88;4969816;28;20660;-80
2022/03/15 08:25:34;;;;;;;38.67;20.75;;;;;;;5.62;49.05;96331.91;4961550;28;20275;-80
2022/03/15 08:28:01;;;;;;;36.35;21.10;;;;;;;5.88;48.88;96330.28;4972520;28;20249;-80
2022/03/15 08:30:29;;;;;;;34.67;19.50;;;;;;;6.34;47.16;96338.75;4972215;28;20202;-80
2022/03/15 08:32:56;;;;;;;38.40;20.15;;;;;;;6.92;47.47;96335.06;4973161;28;20229;-80
2022/03/15 08:35:23;;;;;;;40.17;19.38;;;;;;;7.05;47.10;96334.56;4971367;28;20238;-80
2022/03/15 08:37:51;;;;;;;38.22;20.55;;;;;;;7.16;46.00;96327.34;4965930;28;20203;-82
2022/03/15 08:40:21;;;;;;;48.00;22.52;;;;;;;7.42;46.10;96331.75;4967944;28;20285;-80
2022/03/15 08:42:48;;;;;;;37.63;21.77;;;;;;;7.79;45.53;96323.44;4976410;28;20194;-80
2022/03/15 08:45:15;;;;;;;38.63;20.98;;;;;;;8.13;44.14;96306.75;4957142;28;20261;-79
2022/03/15 08:47:43;;;;;;;36.00;20.38;;;;;;;7.50;44.51;96316.94;4951986;28;20627;-79
2022/03/15 08:50:10;;;;;;;35.30;20.35;;;;;;;7.67;43.87;96308.59;4966307;28;20209;-79
2022/03/15 08:52:37;;;;;;;34.63;20.52;;;;;;;7.88;43.61;96304.03;4974999;28;20309;-80
2022/03/15 08:55:05;;;;;;;39.88;21.70;;;;;;;8.12;43.47;96302.41;4955761;28;20242;-79
2022/03/15 08:57:34;;;;;;;35.83;20.25;;;;;;;7.96;45.33;96298.09;4958767;28;20218;-79
2022/03/15 09:00:02;;;;;;;40.15;21.75;;;;;;;8.26;43.89;96295.41;4960289;28;20206;-78
2022/03/15 09:02:29;;;;;;;36.63;20.92;;;;;;;8.04;43.41;96292.19;4973879;28;20575;-79
2022/03/15 09:04:56;;;;;;;37.60;21.58;;;;;;;8.58;42.93;96286.19;4957771;28;20673;-79
2022/03/15 09:07:23;;;;;;;36.35;20.80;;;;;;;8.78;42.97;96280.72;4966583;28;20708;-80
2022/03/15 09:09:50;;;;;;;41.75;23.23;;;;;;;8.59;42.49;96282.41;4963701;28;20210;-80
2022/03/15 09:12:17;;;;;;;41.67;22.35;;;;;;;8.00;43.60;96285.69;4967796;28;20206;-83
2022/03/15 09:14:46;;;;;;;38.80;22.08;;;;;;;7.80;43.74;96281.91;4960003;28;20290;-79
2022/03/15 09:17:13;;;;;;;50.42;23.02;;;;;;;7.70;44.54;96273.81;4956611;28;20603;-79
2022/03/15 09:19:42;;;;;;;40.15;22.23;;;;;;;7.71;43.63;96272.72;4962298;28;20257;-79
2022/03/15 09:22:09;;;;;;;44.92;22.17;;;;;;;8.09;43.80;96275.97;4969982;28;20229;-79
2022/03/15 09:24:37;;;;;;;50.70;21.95;;;;;;;8.56;42.01;96267.56;4961926;28;20210;-79
2022/03/15 09:27:05;;;;;;;36.70;22.13;;;;;;;8.58;42.30;96272.69;4955907;28;20245;-80
2022/03/15 09:29:32;;;;;;;43.00;22.13;;;;;;;8.65;41.35;96262.41;4962090;28;20226;-77
2022/03/15 09:32:01;;;;;;;42.42;21.42;;;;;;;8.93;43.09;96261.75;4965045;28;20207;-80
2022/03/15 09:34:28;;;;;;;47.70;21.98;;;;;;;8.99;42.26;96255.25;4962784;28;20300;-78
2022/03/15 09:36:55;;;;;;;40.90;21.52;;;;;;;9.34;41.36;96251.56;4956812;28;20658;-80
2022/03/15 09:39:23;;;;;;;37.70;21.92;;;;;;;9.14;40.79;96240.88;4963727;28;20647;-79
2022/03/15 09:41:51;;;;;;;37.60;23.13;;;;;;;9.73;40.44;96237.22;4979499;28;20204;-79
2022/03/15 09:44:20;;;;;;;40.78;23.42;;;;;;;9.30;40.82;96241.56;4965676;28;20211;-79
2022/03/15 09:46:51;;;;;;;37.58;23.67;;;;;;;8.64;41.65;96249.97;4963334;28;20203;-77
2022/03/15 09:49:20;;;;;;;48.38;24.50;;;;;;;8.59;41.63;96250.81;4958582;28;20234;-77
2022/03/15 09:51:47;;;;;;;45.63;24.55;;;;;;;9.22;41.38;96238.38;4971287;28;20194;-79
2022/03/15 09:54:15;;;;;;;39.95;24.95;;;;;;;9.38;40.87;96235.56;4964384;28;20223;-79
2022/03/15 09:56:43;;;;;;;41.03;24.45;;;;;;;9.59;39.81;96228.94;4954653;28;20231;-80
2022/03/15 09:59:14;;;;;;;42.47;23.13;;;;;;;9.79;41.20;96226.09;4967971;28;20218;-79
2022/03/15 10:01:41;;;;;;;42.65;23.25;;;;;;;10.02;39.38;96221.00;4976174;28;20218;-81
2022/03/15 10:04:09;;;;;;;46.08;24.58;;;;;;;9.97;39.13;96222.69;4966694;28;20214;-80
2022/03/15 10:06:38;;;;;;;44.78;22.60;;;;;;;9.36;38.62;96216.13;4970118;28;20206;-80
2022/03/15 10:09:05;;;;;;;42.53;22.30;;;;;;;9.81;38.51;96206.84;4964918;28;20251;-88
2022/03/15 10:11:33;;;;;;;36.70;22.23;;;;;;;10.19;38.88;96199.75;4978758;28;20202;-78
2022/03/15 10:14:00;;;;;;;40.80;23.27;;;;;;;9.96;38.68;96194.00;4964433;28;20226;-77
2022/03/15 10:16:32;;;;;;;45.10;23.85;;;;;;;10.16;40.20;96197.59;4967477;28;20214;-80
2022/03/15 10:19:00;;;;;;;42.08;23.15;;;;;;;10.20;38.73;96198.69;4966025;28;20673;-81
2022/03/15 10:21:37;;;;;;;42.40;23.98;;;;;;;9.95;39.18;96192.38;4977116;28;20218;-77
2022/03/15 10:24:07;;;;;;;31.67;18.70;;;;;;;9.70;36.71;96184.50;4963380;28;20286;-78
2022/03/15 10:26:37;;;;;;;35.55;20.58;;;;;;;9.81;38.26;96193.31;4961825;28;20320;-79
2022/03/15 10:29:04;;;;;;;40.15;21.15;;;;;;;10.10;37.33;96194.16;4966019;28;20301;-79
2022/03/15 10:31:31;;;;;;;39.78;20.13;;;;;;;10.37;37.40;96182.78;4965614;28;20289;-81
2022/03/15 10:34:01;;;;;;;39.85;20.30;;;;;;;10.55;35.00;96178.50;4967935;28;20217;-81
2022/03/15 10:36:37;;;;;;;35.70;19.30;;;;;;;10.46;36.48;96170.22;4955460;28;20207;-78
2022/03/15 10:39:06;;;;;;;28.17;16.98;;;;;;;10.54;33.40;96177.69;4967808;28;20424;-74
2022/03/15 10:41:43;;;;;;;20.83;13.98;;;;;;;10.61;33.23;96167.31;4981588;28;20197;-79
2022/03/15 10:44:19;;;;;;;23.15;13.05;;;;;;;10.95;31.59;96152.78;4970882;28;20206;-80
2022/03/15 10:46:57;;;;;;;26.23;13.57;;;;;;;10.90;31.92;96147.44;4967467;28;20209;-76
2022/03/15 10:49:23;;;;;;;21.25;13.43;;;;;;;10.85;31.04;96150.22;4966401;28;20234;-79
2022/03/15 10:51:51;;;;;;;22.90;12.02;;;;;;;11.21;30.16;96135.03;4979252;28;20208;-80
2022/03/15 10:54:19;;;;;;;19.40;11.82;;;;;;;11.46;29.65;96127.63;4965437;28;20203;-79
2022/03/15 10:56:53;;;;;;;18.45;10.68;;;;;;;10.86;29.33;96138.28;4967615;28;20206;-81
2022/03/15 10:59:22;;;;;;;16.75;9.60;;;;;;;11.13;29.26;96130.28;4963776;28;20249;-78
2022/03/15 11:01:49;;;;;;;16.70;7.85;;;;;;;11.06;26.18;96121.75;4975149;28;20325;-76
2022/03/15 11:04:17;;;;;;;12.82;7.45;;;;;;;11.34;27.35;96120.72;4963483;28;20214;-79
2022/03/15 11:06:46;;;;;;;16.10;8.55;;;;;;;11.08;27.38;96116.00;4967295;28;20299;-79
2022/03/15 11:09:23;;;;;;;17.95;9.25;;;;;;;11.34;28.62;96115.31;4963791;28;20233;-79
2022/03/15 11:11:57;;;;;;;12.40;7.85;;;;;;;11.16;27.50;96113.44;4977794;28;20198;-75
2022/03/15 11:14:36;;;;;;;16.58;9.48;;;;;;;11.05;28.45;96114.69;4960917;28;20261;-75
2022/03/15 11:17:07;;;;;;;12.52;7.88;;;;;;;10.80;28.68;96104.19;4962265;28;20337;-78
2022/03/15 11:19:40;;;;;;;15.20;7.82;;;;;;;10.95;29.26;96095.84;4960014;28;20196;-79
2022/03/15 11:22:09;;;;;;;15.77;8.70;;;;;;;11.15;30.40;96079.28;4968858;28;20226;-80
2022/03/15 11:24:44;;;;;;;17.65;8.55;;;;;;;10.89;29.81;96086.19;4966716;28;20313;-76
2022/03/15 11:27:16;;;;;;;17.33;8.70;;;;;;;11.00;30.29;96082.22;4965400;28;20689;-77
2022/03/15 11:29:45;;;;;;;14.00;8.00;;;;;;;11.17;29.87;96082.50;4961109;28;20226;-83
2022/03/15 11:32:14;;;;;;;14.25;7.40;;;;;;;11.09;28.78;96075.03;4987068;28;20244;-76